^^
Station Historical Data
Daily Summary for January 3, 2017 Units:  Both    English   Metric
« Previous Day
Next Day »
Daily Weekly Monthly Yearly Custom
  High: Low: Average:
Temperature: 81.9 °F /  27.7 °C 62.1 °F /  16.7 °C 71.4 °F /  21.9 °C
Dew Point: 61.9 °F /  16.6 °C 55.2 °F /  12.9 °C 58.7 °F /  14.8 °C
Humidity: 95% 44% 67%
Wind Speed: 14.1mph /  22.7km/h - 3.2mph /  5.1km/h
Wind Gust: 17.0mph /  27.4km/h - -
Wind- - SSE
Pressure: 29.74 in /  1007 hPa 29.64 in /  1003.6 hPa -
Precipitation: 0.00 in /  0 mm    
Historical Graphs
 
 
Tabular Data for January 3, 2017
Time Temperature Dew Point Pressure Wind Wind Speed Wind Gust Humidity Rainfall Rate (Hourly) solar Conditions
00:04 63.0 °F /  17.2 °C 61.5 °F /  16.4 °C 29.72in /  1006.3hPa Calm   1.0mph /  1.6km/h 95% 0.00in /  0mm 0.0 W/m2
00:10 63.1 °F /  17.3 °C 61.7 °F /  16.5 °C 29.72in /  1006.3hPa Calm   1.0mph /  1.6km/h 95% 0.00in /  0mm 0.0 W/m2
00:16 63.1 °F /  17.3 °C 61.7 °F /  16.5 °C 29.72in /  1006.3hPa Calm     95% 0.00in /  0mm 0.0 W/m2
00:22 63.3 °F /  17.4 °C 61.9 °F /  16.6 °C 29.72in /  1006.3hPa Calm     95% 0.00in /  0mm 0.0 W/m2
00:28 63.3 °F /  17.4 °C 61.9 °F /  16.6 °C 29.72in /  1006.3hPa Calm     95% 0.00in /  0mm 0.0 W/m2
00:34 63.0 °F /  17.2 °C 61.2 °F /  16.2 °C 29.72in /  1006.3hPa Calm   3.0mph /  4.8km/h 94% 0.00in /  0mm 0.0 W/m2
00:40 62.6 °F /  17 °C 60.6 °F /  15.9 °C 29.72in /  1006.3hPa WSW 0.9mph /  1.4km/h 2.0mph /  3.2km/h 93% 0.00in /  0mm 0.0 W/m2
00:46 62.2 °F /  16.8 °C 59.9 °F /  15.5 °C 29.72in /  1006.3hPa WSW 0.9mph /  1.4km/h 5.0mph /  8km/h 92% 0.00in /  0mm 0.0 W/m2
00:52 62.1 °F /  16.7 °C 59.4 °F /  15.2 °C 29.72in /  1006.3hPa Calm   2.0mph /  3.2km/h 91% 0.00in /  0mm 0.0 W/m2
00:58 62.1 °F /  16.7 °C 59.4 °F /  15.2 °C 29.72in /  1006.3hPa Calm   1.0mph /  1.6km/h 91% 0.00in /  0mm 0.0 W/m2
01:04 62.1 °F /  16.7 °C 59.7 °F /  15.4 °C 29.72in /  1006.3hPa Calm   1.0mph /  1.6km/h 92% 0.00in /  0mm 0.0 W/m2
01:10 62.1 °F /  16.7 °C 59.7 °F /  15.4 °C 29.71in /  1006hPa Calm   3.0mph /  4.8km/h 92% 0.00in /  0mm 0.0 W/m2
01:16 62.2 °F /  16.8 °C 59.9 °F /  15.5 °C 29.71in /  1006hPa Calm   1.0mph /  1.6km/h 92% 0.00in /  0mm 0.0 W/m2
01:22 62.4 °F /  16.9 °C 60.1 °F /  15.6 °C 29.71in /  1006hPa Calm     92% 0.00in /  0mm 0.0 W/m2
01:28 62.4 °F /  16.9 °C 60.1 °F /  15.6 °C 29.71in /  1006hPa Calm     92% 0.00in /  0mm 0.0 W/m2
01:34 62.6 °F /  17 °C 60.3 °F /  15.7 °C 29.70in /  1005.6hPa Calm   2.0mph /  3.2km/h 92% 0.00in /  0mm 0.0 W/m2
01:40 62.8 °F /  17.1 °C 60.1 °F /  15.6 °C 29.70in /  1005.6hPa Calm   1.0mph /  1.6km/h 91% 0.00in /  0mm 0.0 W/m2
01:46 63.0 °F /  17.2 °C 60.6 °F /  15.9 °C 29.70in /  1005.6hPa Calm   2.0mph /  3.2km/h 92% 0.00in /  0mm 0.0 W/m2
01:52 63.1 °F /  17.3 °C 60.8 °F /  16 °C 29.70in /  1005.6hPa Calm     92% 0.00in /  0mm 0.0 W/m2
01:58 63.1 °F /  17.3 °C 60.4 °F /  15.8 °C 29.70in /  1005.6hPa Calm   1.0mph /  1.6km/h 91% 0.00in /  0mm 0.0 W/m2
02:04 63.3 °F /  17.4 °C 60.3 °F /  15.7 °C 29.70in /  1005.6hPa Calm     90% 0.00in /  0mm 0.0 W/m2
02:10 63.3 °F /  17.4 °C 60.3 °F /  15.7 °C 29.70in /  1005.6hPa Calm     90% 0.00in /  0mm 0.0 W/m2
02:16 63.3 °F /  17.4 °C 60.6 °F /  15.9 °C 29.70in /  1005.6hPa Calm     91% 0.00in /  0mm 0.0 W/m2
02:22 63.3 °F /  17.4 °C 60.3 °F /  15.7 °C 29.70in /  1005.6hPa Calm     90% 0.00in /  0mm 0.0 W/m2
02:28 63.5 °F /  17.5 °C 60.4 °F /  15.8 °C 29.69in /  1005.3hPa Calm     90% 0.00in /  0mm 0.0 W/m2
02:34 63.3 °F /  17.4 °C 60.3 °F /  15.7 °C 29.69in /  1005.3hPa Calm     90% 0.00in /  0mm 0.0 W/m2
02:40 63.3 °F /  17.4 °C 60.6 °F /  15.9 °C 29.69in /  1005.3hPa Calm     91% 0.00in /  0mm 0.0 W/m2
02:46 63.3 °F /  17.4 °C 60.3 °F /  15.7 °C 29.70in /  1005.6hPa Calm     90% 0.00in /  0mm 0.0 W/m2
02:52 63.1 °F /  17.3 °C 60.1 °F /  15.6 °C 29.69in /  1005.3hPa Calm   1.0mph /  1.6km/h 90% 0.00in /  0mm 0.0 W/m2
02:58 63.1 °F /  17.3 °C 60.1 °F /  15.6 °C 29.69in /  1005.3hPa Calm   4.0mph /  6.4km/h 90% 0.00in /  0mm 0.0 W/m2
03:04 63.1 °F /  17.3 °C 60.1 °F /  15.6 °C 29.69in /  1005.3hPa Calm   2.0mph /  3.2km/h 90% 0.00in /  0mm 0.0 W/m2
03:10 63.1 °F /  17.3 °C 60.1 °F /  15.6 °C 29.69in /  1005.3hPa Calm   1.0mph /  1.6km/h 90% 0.00in /  0mm 0.0 W/m2
03:16 63.0 °F /  17.2 °C 59.9 °F /  15.5 °C 29.68in /  1005hPa Calm   1.0mph /  1.6km/h 90% 0.00in /  0mm 0.0 W/m2
03:22 63.0 °F /  17.2 °C 59.9 °F /  15.5 °C 29.69in /  1005.3hPa Calm     90% 0.00in /  0mm 0.0 W/m2
03:28 62.8 °F /  17.1 °C 59.7 °F /  15.4 °C 29.69in /  1005.3hPa Calm   3.0mph /  4.8km/h 90% 0.00in /  0mm 0.0 W/m2
03:34 62.8 °F /  17.1 °C 59.5 °F /  15.3 °C 29.69in /  1005.3hPa Calm   3.0mph /  4.8km/h 89% 0.00in /  0mm 0.0 W/m2
03:40 62.8 °F /  17.1 °C 59.5 °F /  15.3 °C 29.69in /  1005.3hPa South 2.0mph /  3.2km/h 2.0mph /  3.2km/h 89% 0.00in /  0mm 0.0 W/m2
03:46 62.8 °F /  17.1 °C 58.8 °F /  14.9 °C 29.68in /  1005hPa South 2.0mph /  3.2km/h 5.0mph /  8km/h 87% 0.00in /  0mm 0.0 W/m2
03:52 63.0 °F /  17.2 °C 59.0 °F /  15 °C 29.69in /  1005.3hPa Calm   1.0mph /  1.6km/h 87% 0.00in /  0mm 0.0 W/m2
03:58 63.0 °F /  17.2 °C 59.0 °F /  15 °C 29.69in /  1005.3hPa West 0.9mph /  1.4km/h 2.0mph /  3.2km/h 87% 0.00in /  0mm 0.0 W/m2
04:04 62.8 °F /  17.1 °C 58.8 °F /  14.9 °C 29.69in /  1005.3hPa Calm     87% 0.00in /  0mm 0.0 W/m2
04:10 62.8 °F /  17.1 °C 58.8 °F /  14.9 °C 29.69in /  1005.3hPa Calm   1.0mph /  1.6km/h 87% 0.00in /  0mm 0.0 W/m2
04:16 62.6 °F /  17 °C 59.0 °F /  15 °C 29.69in /  1005.3hPa Calm     88% 0.00in /  0mm 0.0 W/m2
04:22 62.6 °F /  17 °C 59.0 °F /  15 °C 29.69in /  1005.3hPa Calm   1.0mph /  1.6km/h 88% 0.00in /  0mm 0.0 W/m2
04:28 62.8 °F /  17.1 °C 59.2 °F /  15.1 °C 29.69in /  1005.3hPa SSW 6.0mph /  9.7km/h 7.0mph /  11.3km/h 88% 0.00in /  0mm 0.0 W/m2
04:34 63.1 °F /  17.3 °C 59.5 °F /  15.3 °C 29.69in /  1005.3hPa South 2.0mph /  3.2km/h 3.0mph /  4.8km/h 88% 0.00in /  0mm 0.0 W/m2
04:40 63.3 °F /  17.4 °C 59.4 °F /  15.2 °C 29.69in /  1005.3hPa Calm   5.0mph /  8km/h 87% 0.00in /  0mm 0.0 W/m2
04:46 63.3 °F /  17.4 °C 59.4 °F /  15.2 °C 29.69in /  1005.3hPa Calm   1.0mph /  1.6km/h 87% 0.00in /  0mm 0.0 W/m2
04:52 63.3 °F /  17.4 °C 59.0 °F /  15 °C 29.68in /  1005hPa Calm     86% 0.00in /  0mm 0.0 W/m2
04:58 63.1 °F /  17.3 °C 59.2 °F /  15.1 °C 29.69in /  1005.3hPa Calm   1.0mph /  1.6km/h 87% 0.00in /  0mm 0.0 W/m2
05:04 63.0 °F /  17.2 °C 59.0 °F /  15 °C 29.69in /  1005.3hPa South 0.9mph /  1.4km/h 2.0mph /  3.2km/h 87% 0.00in /  0mm 0.0 W/m2
05:10 63.0 °F /  17.2 °C 59.0 °F /  15 °C 29.69in /  1005.3hPa Calm   2.0mph /  3.2km/h 87% 0.00in /  0mm 0.0 W/m2
05:16 63.0 °F /  17.2 °C 59.0 °F /  15 °C 29.69in /  1005.3hPa Calm   1.0mph /  1.6km/h 87% 0.00in /  0mm 0.0 W/m2
05:22 62.8 °F /  17.1 °C 58.8 °F /  14.9 °C 29.69in /  1005.3hPa Calm     87% 0.00in /  0mm 0.0 W/m2
05:28 62.8 °F /  17.1 °C 59.2 °F /  15.1 °C 29.70in /  1005.6hPa South 0.9mph /  1.4km/h 1.0mph /  1.6km/h 88% 0.00in /  0mm 0.0 W/m2
05:34 62.8 °F /  17.1 °C 59.2 °F /  15.1 °C 29.69in /  1005.3hPa SE 0.9mph /  1.4km/h 2.0mph /  3.2km/h 88% 0.00in /  0mm 0.0 W/m2
05:40 62.8 °F /  17.1 °C 59.2 °F /  15.1 °C 29.69in /  1005.3hPa Calm   1.0mph /  1.6km/h 88% 0.00in /  0mm 0.0 W/m2
05:46 62.6 °F /  17 °C 59.0 °F /  15 °C 29.69in /  1005.3hPa Calm     88% 0.00in /  0mm 0.0 W/m2
05:52 62.6 °F /  17 °C 59.0 °F /  15 °C 29.69in /  1005.3hPa Calm   1.0mph /  1.6km/h 88% 0.00in /  0mm 0.0 W/m2
05:58 62.6 °F /  17 °C 59.0 °F /  15 °C 29.70in /  1005.6hPa SSE 4.0mph /  6.4km/h 5.0mph /  8km/h 88% 0.00in /  0mm 0.0 W/m2
06:04 62.8 °F /  17.1 °C 59.2 °F /  15.1 °C 29.70in /  1005.6hPa SE 0.9mph /  1.4km/h 5.0mph /  8km/h 88% 0.00in /  0mm 0.0 W/m2
06:10 63.0 °F /  17.2 °C 59.0 °F /  15 °C 29.70in /  1005.6hPa Calm   4.0mph /  6.4km/h 87% 0.00in /  0mm 0.0 W/m2
06:16 63.0 °F /  17.2 °C 59.0 °F /  15 °C 29.70in /  1005.6hPa SSE 2.0mph /  3.2km/h 5.0mph /  8km/h 87% 0.00in /  0mm 0.0 W/m2
06:22 63.1 °F /  17.3 °C 59.2 °F /  15.1 °C 29.70in /  1005.6hPa Calm   3.0mph /  4.8km/h 87% 0.00in /  0mm 7.0 W/m2
06:28 63.3 °F /  17.4 °C 59.4 °F /  15.2 °C 29.70in /  1005.6hPa ESE 2.0mph /  3.2km/h 5.0mph /  8km/h 87% 0.00in /  0mm 12.0 W/m2
06:34 63.5 °F /  17.5 °C 59.5 °F /  15.3 °C 29.70in /  1005.6hPa SE 4.9mph /  7.9km/h 7.0mph /  11.3km/h 87% 0.00in /  0mm 18.0 W/m2
06:40 63.7 °F /  17.6 °C 59.4 °F /  15.2 °C 29.70in /  1005.6hPa Calm   4.0mph /  6.4km/h 86% 0.00in /  0mm 25.0 W/m2
06:46 63.9 °F /  17.7 °C 59.5 °F /  15.3 °C 29.70in /  1005.6hPa SE 0.9mph /  1.4km/h 6.0mph /  9.7km/h 86% 0.00in /  0mm 30.0 W/m2
06:52 64.0 °F /  17.8 °C 59.7 °F /  15.4 °C 29.70in /  1005.6hPa Calm   2.0mph /  3.2km/h 86% 0.00in /  0mm 35.0 W/m2
06:58 64.0 °F /  17.8 °C 59.4 °F /  15.2 °C 29.70in /  1005.6hPa ESE 2.0mph /  3.2km/h 9.0mph /  14.5km/h 85% 0.00in /  0mm 47.0 W/m2
07:04 64.2 °F /  17.9 °C 59.5 °F /  15.3 °C 29.70in /  1005.6hPa SSE 2.0mph /  3.2km/h 5.0mph /  8km/h 85% 0.00in /  0mm 56.0 W/m2
07:10 64.6 °F /  18.1 °C 59.9 °F /  15.5 °C 29.70in /  1005.6hPa Calm   3.0mph /  4.8km/h 85% 0.00in /  0mm 63.0 W/m2
07:16 64.6 °F /  18.1 °C 59.9 °F /  15.5 °C 29.70in /  1005.6hPa Calm   5.0mph /  8km/h 85% 0.00in /  0mm 79.0 W/m2
07:22 64.8 °F /  18.2 °C 59.9 °F /  15.5 °C 29.70in /  1005.6hPa SSE 4.0mph /  6.4km/h 9.0mph /  14.5km/h 84% 0.00in /  0mm 88.0 W/m2
07:28 65.1 °F /  18.4 °C 60.4 °F /  15.8 °C 29.70in /  1005.6hPa SSW 4.0mph /  6.4km/h 8.0mph /  12.9km/h 85% 0.00in /  0mm 90.0 W/m2
07:34 65.3 °F /  18.5 °C 60.1 °F /  15.6 °C 29.70in /  1005.6hPa South 2.9mph /  4.7km/h 9.0mph /  14.5km/h 83% 0.00in /  0mm 95.0 W/m2
07:40 65.5 °F /  18.6 °C 60.3 °F /  15.7 °C 29.70in /  1005.6hPa South 4.0mph /  6.4km/h 8.0mph /  12.9km/h 83% 0.00in /  0mm 107.0 W/m2
07:46 65.7 °F /  18.7 °C 60.4 °F /  15.8 °C 29.70in /  1005.6hPa ESE 2.9mph /  4.7km/h 11.0mph /  17.7km/h 83% 0.00in /  0mm 113.0 W/m2
07:53 65.7 °F /  18.7 °C 60.1 °F /  15.6 °C 29.71in /  1006hPa SSE 8.1mph /  13km/h 10.0mph /  16.1km/h 82% 0.00in /  0mm 116.0 W/m2
07:59 65.8 °F /  18.8 °C 60.3 °F /  15.7 °C 29.71in /  1006hPa SE 4.9mph /  7.9km/h 7.0mph /  11.3km/h 82% 0.00in /  0mm 200.0 W/m2
08:05 66.2 °F /  19 °C 60.3 °F /  15.7 °C 29.71in /  1006hPa SE 4.0mph /  6.4km/h 8.0mph /  12.9km/h 81% 0.00in /  0mm 148.0 W/m2
08:11 66.6 °F /  19.2 °C 60.3 °F /  15.7 °C 29.70in /  1005.6hPa SSW 0.9mph /  1.4km/h 10.0mph /  16.1km/h 80% 0.00in /  0mm 431.0 W/m2
08:17 66.9 °F /  19.4 °C 60.3 °F /  15.7 °C 29.71in /  1006hPa SE 4.0mph /  6.4km/h 11.0mph /  17.7km/h 79% 0.00in /  0mm 162.0 W/m2
08:23 67.1 °F /  19.5 °C 60.1 °F /  15.6 °C 29.71in /  1006hPa South 6.0mph /  9.7km/h 12.0mph /  19.3km/h 78% 0.00in /  0mm 195.0 W/m2
08:29 67.3 °F /  19.6 °C 60.3 °F /  15.7 °C 29.70in /  1005.6hPa SSE 8.1mph /  13km/h 11.0mph /  17.7km/h 78% 0.00in /  0mm 200.0 W/m2
08:35 67.5 °F /  19.7 °C 60.4 °F /  15.8 °C 29.70in /  1005.6hPa South 4.0mph /  6.4km/h 12.0mph /  19.3km/h 78% 0.00in /  0mm 183.0 W/m2
08:41 67.6 °F /  19.8 °C 60.6 °F /  15.9 °C 29.70in /  1005.6hPa ESE 8.1mph /  13km/h 9.0mph /  14.5km/h 78% 0.00in /  0mm 188.0 W/m2
08:47 68.0 °F /  20 °C 60.1 °F /  15.6 °C 29.70in /  1005.6hPa SSE 4.0mph /  6.4km/h 11.0mph /  17.7km/h 76% 0.00in /  0mm 439.0 W/m2
08:53 68.4 °F /  20.2 °C 60.4 °F /  15.8 °C 29.71in /  1006hPa South 6.0mph /  9.7km/h 7.0mph /  11.3km/h 76% 0.00in /  0mm 318.0 W/m2
09:00 68.7 °F /  20.4 °C 59.7 °F /  15.4 °C 29.71in /  1006hPa SSE 4.0mph /  6.4km/h 15.0mph /  24.1km/h 73% 0.00in /  0mm 591.0 W/m2
09:06 69.4 °F /  20.8 °C 59.5 °F /  15.3 °C 29.71in /  1006hPa SE 0.9mph /  1.4km/h 11.0mph /  17.7km/h 71% 0.00in /  0mm 555.0 W/m2
09:12 70.0 °F /  21.1 °C 60.1 °F /  15.6 °C 29.71in /  1006hPa SSE 6.0mph /  9.7km/h 12.0mph /  19.3km/h 71% 0.00in /  0mm 622.0 W/m2
09:18 70.2 °F /  21.2 °C 59.5 °F /  15.3 °C 29.71in /  1006hPa South 6.0mph /  9.7km/h 10.0mph /  16.1km/h 69% 0.00in /  0mm 211.0 W/m2
09:24 70.3 °F /  21.3 °C 60.1 °F /  15.6 °C 29.71in /  1006hPa South 2.9mph /  4.7km/h 7.0mph /  11.3km/h 70% 0.00in /  0mm 417.0 W/m2
09:30 70.9 °F /  21.6 °C 59.4 °F /  15.2 °C 29.71in /  1006hPa SE 8.1mph /  13km/h 13.0mph /  20.9km/h 67% 0.00in /  0mm 227.0 W/m2
09:36 70.9 °F /  21.6 °C 59.4 °F /  15.2 °C 29.72in /  1006.3hPa SE 2.9mph /  4.7km/h 8.0mph /  12.9km/h 67% 0.00in /  0mm 209.0 W/m2
09:42 71.1 °F /  21.7 °C 58.6 °F /  14.8 °C 29.72in /  1006.3hPa SE 4.9mph /  7.9km/h 8.0mph /  12.9km/h 65% 0.00in /  0mm 294.0 W/m2
09:48 71.1 °F /  21.7 °C 58.6 °F /  14.8 °C 29.72in /  1006.3hPa South 6.9mph /  11.1km/h 14.0mph /  22.5km/h 65% 0.00in /  0mm 172.0 W/m2
09:54 70.9 °F /  21.6 °C 59.0 °F /  15 °C 29.72in /  1006.3hPa SSE 4.9mph /  7.9km/h 13.0mph /  20.9km/h 66% 0.00in /  0mm 229.0 W/m2
10:00 70.9 °F /  21.6 °C 59.4 °F /  15.2 °C 29.72in /  1006.3hPa SE 4.0mph /  6.4km/h 9.0mph /  14.5km/h 67% 0.00in /  0mm 592.0 W/m2
10:07 71.2 °F /  21.8 °C 59.4 °F /  15.2 °C 29.72in /  1006.3hPa SSE 2.0mph /  3.2km/h 9.0mph /  14.5km/h 66% 0.00in /  0mm 877.0 W/m2
10:13 72.1 °F /  22.3 °C 59.7 °F /  15.4 °C 29.72in /  1006.3hPa SW 2.9mph /  4.7km/h 8.0mph /  12.9km/h 65% 0.00in /  0mm 318.0 W/m2
10:19 72.1 °F /  22.3 °C 59.4 °F /  15.2 °C 29.73in /  1006.7hPa SW 4.0mph /  6.4km/h 6.0mph /  9.7km/h 64% 0.00in /  0mm 281.0 W/m2
10:25 72.1 °F /  22.3 °C 59.7 °F /  15.4 °C 29.73in /  1006.7hPa Calm   10.0mph /  16.1km/h 65% 0.00in /  0mm 283.0 W/m2
10:31 72.1 °F /  22.3 °C 59.7 °F /  15.4 °C 29.72in /  1006.3hPa SSW 6.0mph /  9.7km/h 7.0mph /  11.3km/h 65% 0.00in /  0mm 410.0 W/m2
10:37 72.1 °F /  22.3 °C 59.4 °F /  15.2 °C 29.73in /  1006.7hPa West 10.1mph /  16.3km/h 10.1mph /  16.3km/h 64% 0.00in /  0mm 265.0 W/m2
10:43 72.1 °F /  22.3 °C 60.1 °F /  15.6 °C 29.73in /  1006.7hPa SSE 2.9mph /  4.7km/h 9.0mph /  14.5km/h 66% 0.00in /  0mm 250.0 W/m2
10:49 72.1 °F /  22.3 °C 60.1 °F /  15.6 °C 29.73in /  1006.7hPa SE 6.9mph /  11.1km/h 12.0mph /  19.3km/h 66% 0.00in /  0mm 606.0 W/m2
10:55 72.1 °F /  22.3 °C 60.1 °F /  15.6 °C 29.72in /  1006.3hPa South 0.9mph /  1.4km/h 10.0mph /  16.1km/h 66% 0.00in /  0mm 489.0 W/m2
11:02 72.7 °F /  22.6 °C 59.7 °F /  15.4 °C 29.72in /  1006.3hPa Calm   5.0mph /  8km/h 64% 0.00in /  0mm 540.0 W/m2
11:08 73.0 °F /  22.8 °C 60.1 °F /  15.6 °C 29.72in /  1006.3hPa SW 4.9mph /  7.9km/h 7.0mph /  11.3km/h 64% 0.00in /  0mm 659.0 W/m2
11:14 73.8 °F /  23.2 °C 59.9 °F /  15.5 °C 29.73in /  1006.7hPa SE 4.9mph /  7.9km/h 10.0mph /  16.1km/h 62% 0.00in /  0mm 960.0 W/m2
11:20 75.0 °F /  23.9 °C 59.7 °F /  15.4 °C 29.73in /  1006.7hPa South 4.0mph /  6.4km/h 6.0mph /  9.7km/h 59% 0.00in /  0mm 1362.0 W/m2
11:26 76.3 °F /  24.6 °C 59.4 °F /  15.2 °C 29.72in /  1006.3hPa SSE 6.0mph /  9.7km/h 12.0mph /  19.3km/h 56% 0.00in /  0mm 666.0 W/m2
11:32 76.6 °F /  24.8 °C 58.3 °F /  14.6 °C 29.72in /  1006.3hPa SSE 2.0mph /  3.2km/h 9.0mph /  14.5km/h 53% 0.00in /  0mm 492.0 W/m2
11:38 76.8 °F /  24.9 °C 59.0 °F /  15 °C 29.72in /  1006.3hPa South 2.0mph /  3.2km/h 10.0mph /  16.1km/h 54% 0.00in /  0mm 401.0 W/m2
11:44 76.5 °F /  24.7 °C 59.2 °F /  15.1 °C 29.73in /  1006.7hPa WSW 4.9mph /  7.9km/h 9.0mph /  14.5km/h 55% 0.00in /  0mm 874.0 W/m2
11:50 76.6 °F /  24.8 °C 58.8 °F /  14.9 °C 29.72in /  1006.3hPa SSW 2.9mph /  4.7km/h 10.0mph /  16.1km/h 54% 0.00in /  0mm 585.0 W/m2
11:57 77.2 °F /  25.1 °C 59.2 °F /  15.1 °C 29.72in /  1006.3hPa SE 4.9mph /  7.9km/h 9.0mph /  14.5km/h 54% 0.00in /  0mm 1357.0 W/m2
12:03 77.5 °F /  25.3 °C 59.5 °F /  15.3 °C 29.72in /  1006.3hPa SE 6.0mph /  9.7km/h 8.0mph /  12.9km/h 54% 0.00in /  0mm 1266.0 W/m2
12:09 77.5 °F /  25.3 °C 59.5 °F /  15.3 °C 29.72in /  1006.3hPa SSW 4.0mph /  6.4km/h 8.0mph /  12.9km/h 54% 0.00in /  0mm 501.0 W/m2
12:15 77.9 °F /  25.5 °C 59.9 °F /  15.5 °C 29.72in /  1006.3hPa South 4.9mph /  7.9km/h 10.0mph /  16.1km/h 54% 0.00in /  0mm 1041.0 W/m2
12:21 77.7 °F /  25.4 °C 60.8 °F /  16 °C 29.72in /  1006.3hPa SE 2.0mph /  3.2km/h 12.0mph /  19.3km/h 56% 0.00in /  0mm 524.0 W/m2
12:27 77.5 °F /  25.3 °C 60.6 °F /  15.9 °C 29.72in /  1006.3hPa SW 0.9mph /  1.4km/h 7.0mph /  11.3km/h 56% 0.00in /  0mm 394.0 W/m2
12:33 76.8 °F /  24.9 °C 59.4 °F /  15.2 °C 29.72in /  1006.3hPa SE 6.0mph /  9.7km/h 11.0mph /  17.7km/h 55% 0.00in /  0mm 1090.0 W/m2
12:39 77.0 °F /  25 °C 59.5 °F /  15.3 °C 29.72in /  1006.3hPa SSE 6.0mph /  9.7km/h 8.0mph /  12.9km/h 55% 0.00in /  0mm 408.0 W/m2
12:46 76.8 °F /  24.9 °C 59.9 °F /  15.5 °C 29.72in /  1006.3hPa SE 2.9mph /  4.7km/h 11.0mph /  17.7km/h 56% 0.00in /  0mm 441.0 W/m2
12:52 76.6 °F /  24.8 °C 59.2 °F /  15.1 °C 29.72in /  1006.3hPa South 2.0mph /  3.2km/h 7.0mph /  11.3km/h 55% 0.00in /  0mm 362.0 W/m2
12:58 76.3 °F /  24.6 °C 59.4 °F /  15.2 °C 29.72in /  1006.3hPa SSW 2.0mph /  3.2km/h 7.0mph /  11.3km/h 56% 0.00in /  0mm 413.0 W/m2
13:04 76.5 °F /  24.7 °C 59.5 °F /  15.3 °C 29.72in /  1006.3hPa ESE 4.9mph /  7.9km/h 11.0mph /  17.7km/h 56% 0.00in /  0mm 1002.0 W/m2
13:10 77.4 °F /  25.2 °C 58.8 °F /  14.9 °C 29.72in /  1006.3hPa SE 6.0mph /  9.7km/h 13.0mph /  20.9km/h 53% 0.00in /  0mm 960.0 W/m2
13:16 78.1 °F /  25.6 °C 58.5 °F /  14.7 °C 29.72in /  1006.3hPa South 6.0mph /  9.7km/h 12.0mph /  19.3km/h 51% 0.00in /  0mm 1055.0 W/m2
13:22 78.4 °F /  25.8 °C 58.3 °F /  14.6 °C 29.72in /  1006.3hPa SSE 6.9mph /  11.1km/h 10.0mph /  16.1km/h 50% 0.00in /  0mm 1099.0 W/m2
13:28 79.2 °F /  26.2 °C 58.3 °F /  14.6 °C 29.71in /  1006hPa SSW 8.1mph /  13km/h 11.0mph /  17.7km/h 49% 0.00in /  0mm 1076.0 W/m2
13:35 79.2 °F /  26.2 °C 57.7 °F /  14.3 °C 29.71in /  1006hPa SSW 8.1mph /  13km/h 9.0mph /  14.5km/h 48% 0.00in /  0mm 1056.0 W/m2
13:41 79.2 °F /  26.2 °C 58.3 °F /  14.6 °C 29.71in /  1006hPa SSW 6.9mph /  11.1km/h 12.0mph /  19.3km/h 49% 0.00in /  0mm 1018.0 W/m2
13:47 79.5 °F /  26.4 °C 58.1 °F /  14.5 °C 29.71in /  1006hPa SSW 2.9mph /  4.7km/h 11.0mph /  17.7km/h 48% 0.00in /  0mm 1067.0 W/m2
13:53 80.1 °F /  26.7 °C 58.1 °F /  14.5 °C 29.71in /  1006hPa South 4.0mph /  6.4km/h 9.0mph /  14.5km/h 47% 0.00in /  0mm 970.0 W/m2
13:59 80.4 °F /  26.9 °C 58.3 °F /  14.6 °C 29.71in /  1006hPa SSE 0.9mph /  1.4km/h 10.0mph /  16.1km/h 47% 0.00in /  0mm 1104.0 W/m2
14:05 80.4 °F /  26.9 °C 57.7 °F /  14.3 °C 29.71in /  1006hPa SSE 0.9mph /  1.4km/h 7.0mph /  11.3km/h 46% 0.00in /  0mm 1076.0 W/m2
14:11 80.1 °F /  26.7 °C 56.8 °F /  13.8 °C 29.71in /  1006hPa SSE 2.9mph /  4.7km/h 12.0mph /  19.3km/h 45% 0.00in /  0mm 1018.0 W/m2
14:17 79.5 °F /  26.4 °C 56.8 °F /  13.8 °C 29.70in /  1005.6hPa SSE 4.9mph /  7.9km/h 7.0mph /  11.3km/h 46% 0.00in /  0mm 979.0 W/m2
14:24 79.9 °F /  26.6 °C 57.9 °F /  14.4 °C 29.70in /  1005.6hPa SW 2.0mph /  3.2km/h 12.0mph /  19.3km/h 47% 0.00in /  0mm 299.0 W/m2
14:30 79.7 °F /  26.5 °C 58.3 °F /  14.6 °C 29.70in /  1005.6hPa SSE 2.9mph /  4.7km/h 12.0mph /  19.3km/h 48% 0.00in /  0mm 863.0 W/m2
14:36 79.5 °F /  26.4 °C 57.6 °F /  14.2 °C 29.70in /  1005.6hPa South 2.9mph /  4.7km/h 10.0mph /  16.1km/h 47% 0.00in /  0mm 942.0 W/m2
14:42 79.7 °F /  26.5 °C 57.0 °F /  13.9 °C 29.70in /  1005.6hPa SSW 4.0mph /  6.4km/h 11.0mph /  17.7km/h 46% 0.00in /  0mm 953.0 W/m2
14:48 79.3 °F /  26.3 °C 57.9 °F /  14.4 °C 29.70in /  1005.6hPa ESE 4.0mph /  6.4km/h 5.0mph /  8km/h 48% 0.00in /  0mm 332.0 W/m2
14:54 80.2 °F /  26.8 °C 57.6 °F /  14.2 °C 29.70in /  1005.6hPa Calm   11.0mph /  17.7km/h 46% 0.00in /  0mm 1034.0 W/m2
15:00 81.0 °F /  27.2 °C 57.6 °F /  14.2 °C 29.70in /  1005.6hPa SSE 2.9mph /  4.7km/h 12.0mph /  19.3km/h 45% 0.00in /  0mm 970.0 W/m2
15:06 81.0 °F /  27.2 °C 57.0 °F /  13.9 °C 29.69in /  1005.3hPa SE 4.0mph /  6.4km/h 14.0mph /  22.5km/h 44% 0.00in /  0mm 960.0 W/m2
15:13 81.0 °F /  27.2 °C 57.6 °F /  14.2 °C 29.69in /  1005.3hPa South 4.9mph /  7.9km/h 8.0mph /  12.9km/h 45% 0.00in /  0mm 1014.0 W/m2
15:19 80.4 °F /  26.9 °C 57.2 °F /  14 °C 29.69in /  1005.3hPa SE 0.9mph /  1.4km/h 8.0mph /  12.9km/h 45% 0.00in /  0mm 243.0 W/m2
15:25 80.8 °F /  27.1 °C 58.1 °F /  14.5 °C 29.69in /  1005.3hPa SSW 4.9mph /  7.9km/h 11.0mph /  17.7km/h 46% 0.00in /  0mm 909.0 W/m2
15:31 81.0 °F /  27.2 °C 58.3 °F /  14.6 °C 29.68in /  1005hPa SW 4.0mph /  6.4km/h 17.0mph /  27.4km/h 46% 0.00in /  0mm 176.0 W/m2
15:37 80.6 °F /  27 °C 57.9 °F /  14.4 °C 29.68in /  1005hPa WSW 4.0mph /  6.4km/h 10.0mph /  16.1km/h 46% 0.00in /  0mm 810.0 W/m2
15:43 80.4 °F /  26.9 °C 57.7 °F /  14.3 °C 29.68in /  1005hPa SSE 2.9mph /  4.7km/h 12.0mph /  19.3km/h 46% 0.00in /  0mm 788.0 W/m2
15:49 80.8 °F /  27.1 °C 57.4 °F /  14.1 °C 29.68in /  1005hPa SSE 6.0mph /  9.7km/h 14.0mph /  22.5km/h 45% 0.00in /  0mm 824.0 W/m2
15:55 81.0 °F /  27.2 °C 58.3 °F /  14.6 °C 29.67in /  1004.6hPa Calm   11.0mph /  17.7km/h 46% 0.00in /  0mm 780.0 W/m2
16:02 81.3 °F /  27.4 °C 57.9 °F /  14.4 °C 29.67in /  1004.6hPa SSE 4.0mph /  6.4km/h 8.0mph /  12.9km/h 45% 0.00in /  0mm 763.0 W/m2
16:08 81.7 °F /  27.6 °C 57.6 °F /  14.2 °C 29.67in /  1004.6hPa South 4.9mph /  7.9km/h 7.0mph /  11.3km/h 44% 0.00in /  0mm 744.0 W/m2
16:14 81.9 °F /  27.7 °C 57.7 °F /  14.3 °C 29.66in /  1004.3hPa SSW 6.9mph /  11.1km/h 12.0mph /  19.3km/h 44% 0.00in /  0mm 738.0 W/m2
16:20 81.9 °F /  27.7 °C 58.5 °F /  14.7 °C 29.66in /  1004.3hPa SE 10.1mph /  16.3km/h 15.0mph /  24.1km/h 45% 0.00in /  0mm 721.0 W/m2
16:26 81.7 °F /  27.6 °C 57.6 °F /  14.2 °C 29.66in /  1004.3hPa ESE 4.9mph /  7.9km/h 13.0mph /  20.9km/h 44% 0.00in /  0mm 687.0 W/m2
16:32 81.7 °F /  27.6 °C 58.3 °F /  14.6 °C 29.66in /  1004.3hPa SSW 11.0mph /  17.7km/h 14.0mph /  22.5km/h 45% 0.00in /  0mm 675.0 W/m2
16:38 81.3 °F /  27.4 °C 58.6 °F /  14.8 °C 29.66in /  1004.3hPa SE 6.0mph /  9.7km/h 12.0mph /  19.3km/h 46% 0.00in /  0mm 645.0 W/m2
16:45 81.3 °F /  27.4 °C 57.9 °F /  14.4 °C 29.66in /  1004.3hPa East 0.9mph /  1.4km/h 13.0mph /  20.9km/h 45% 0.00in /  0mm 612.0 W/m2
16:51 81.5 °F /  27.5 °C 58.1 °F /  14.5 °C 29.65in /  1003.9hPa WSW 2.0mph /  3.2km/h 9.0mph /  14.5km/h 45% 0.00in /  0mm 598.0 W/m2
16:57 81.7 °F /  27.6 °C 58.3 °F /  14.6 °C 29.65in /  1003.9hPa SE 6.0mph /  9.7km/h 12.0mph /  19.3km/h 45% 0.00in /  0mm 570.0 W/m2
17:03 81.5 °F /  27.5 °C 58.6 °F /  14.8 °C 29.65in /  1003.9hPa ESE 11.0mph /  17.7km/h 11.0mph /  17.7km/h 46% 0.00in /  0mm 548.0 W/m2
17:09 81.5 °F /  27.5 °C 58.1 °F /  14.5 °C 29.65in /  1003.9hPa SSW 4.0mph /  6.4km/h 10.0mph /  16.1km/h 45% 0.00in /  0mm 522.0 W/m2
17:15 81.3 °F /  27.4 °C 57.9 °F /  14.4 °C 29.65in /  1003.9hPa SE 4.0mph /  6.4km/h 13.0mph /  20.9km/h 45% 0.00in /  0mm 490.0 W/m2
17:21 81.3 °F /  27.4 °C 57.9 °F /  14.4 °C 29.64in /  1003.6hPa SSE 12.1mph /  19.5km/h 13.0mph /  20.9km/h 45% 0.00in /  0mm 475.0 W/m2
17:28 81.3 °F /  27.4 °C 57.4 °F /  14.1 °C 29.65in /  1003.9hPa SSW 6.0mph /  9.7km/h 13.0mph /  20.9km/h 44% 0.00in /  0mm 455.0 W/m2
17:34 80.8 °F /  27.1 °C 57.4 °F /  14.1 °C 29.65in /  1003.9hPa South 14.1mph /  22.7km/h 14.1mph /  22.7km/h 45% 0.00in /  0mm 436.0 W/m2
17:40 80.6 °F /  27 °C 58.5 °F /  14.7 °C 29.65in /  1003.9hPa SE 6.9mph /  11.1km/h 8.0mph /  12.9km/h 47% 0.00in /  0mm 439.0 W/m2
17:46 81.1 °F /  27.3 °C 58.5 °F /  14.7 °C 29.65in /  1003.9hPa SSW 2.9mph /  4.7km/h 9.0mph /  14.5km/h 46% 0.00in /  0mm 432.0 W/m2
17:52 81.5 °F /  27.5 °C 58.6 °F /  14.8 °C 29.65in /  1003.9hPa South 2.9mph /  4.7km/h 9.0mph /  14.5km/h 46% 0.00in /  0mm 404.0 W/m2
17:58 81.3 °F /  27.4 °C 58.6 °F /  14.8 °C 29.65in /  1003.9hPa SE 4.0mph /  6.4km/h 16.0mph /  25.7km/h 46% 0.00in /  0mm 374.0 W/m2
18:04 81.0 °F /  27.2 °C 58.8 °F /  14.9 °C 29.65in /  1003.9hPa South 6.9mph /  11.1km/h 10.0mph /  16.1km/h 47% 0.00in /  0mm 360.0 W/m2
18:11 80.8 °F /  27.1 °C 58.1 °F /  14.5 °C 29.66in /  1004.3hPa SE 6.9mph /  11.1km/h 12.0mph /  19.3km/h 46% 0.00in /  0mm 329.0 W/m2
18:17 80.8 °F /  27.1 °C 58.1 °F /  14.5 °C 29.66in /  1004.3hPa SSW 4.0mph /  6.4km/h 9.0mph /  14.5km/h 46% 0.00in /  0mm 283.0 W/m2
18:23 80.4 °F /  26.9 °C 57.2 °F /  14 °C 29.66in /  1004.3hPa SE 4.9mph /  7.9km/h 12.0mph /  19.3km/h 45% 0.00in /  0mm 246.0 W/m2
18:29 80.1 °F /  26.7 °C 57.4 °F /  14.1 °C 29.66in /  1004.3hPa SSW 4.9mph /  7.9km/h 10.0mph /  16.1km/h 46% 0.00in /  0mm 220.0 W/m2
18:35 79.7 °F /  26.5 °C 56.5 °F /  13.6 °C 29.66in /  1004.3hPa SW 6.9mph /  11.1km/h 7.0mph /  11.3km/h 45% 0.00in /  0mm 37.0 W/m2
18:41 79.0 °F /  26.1 °C 57.0 °F /  13.9 °C 29.66in /  1004.3hPa ESE 0.9mph /  1.4km/h 3.0mph /  4.8km/h 47% 0.00in /  0mm 135.0 W/m2
18:47 78.4 °F /  25.8 °C 57.7 °F /  14.3 °C 29.66in /  1004.3hPa SSE 4.0mph /  6.4km/h 9.0mph /  14.5km/h 49% 0.00in /  0mm 46.0 W/m2
18:54 78.3 °F /  25.7 °C 57.6 °F /  14.2 °C 29.66in /  1004.3hPa SSE 4.9mph /  7.9km/h 9.0mph /  14.5km/h 49% 0.00in /  0mm 65.0 W/m2
19:00 77.9 °F /  25.5 °C 57.2 °F /  14 °C 29.66in /  1004.3hPa SE 10.1mph /  16.3km/h 13.0mph /  20.9km/h 49% 0.00in /  0mm 33.0 W/m2
19:06 77.4 °F /  25.2 °C 57.7 °F /  14.3 °C 29.66in /  1004.3hPa SSW 2.9mph /  4.7km/h 8.0mph /  12.9km/h 51% 0.00in /  0mm 23.0 W/m2
19:12 76.8 °F /  24.9 °C 57.9 °F /  14.4 °C 29.66in /  1004.3hPa SSE 2.0mph /  3.2km/h 9.0mph /  14.5km/h 52% 0.00in /  0mm 26.0 W/m2
19:18 76.3 °F /  24.6 °C 57.4 °F /  14.1 °C 29.67in /  1004.6hPa SSW 4.9mph /  7.9km/h 8.0mph /  12.9km/h 52% 0.00in /  0mm 23.0 W/m2
19:24 75.9 °F /  24.4 °C 57.6 °F /  14.2 °C 29.67in /  1004.6hPa SW 4.0mph /  6.4km/h 7.0mph /  11.3km/h 53% 0.00in /  0mm 26.0 W/m2
19:30 75.7 °F /  24.3 °C 57.4 °F /  14.1 °C 29.67in /  1004.6hPa ESE 4.0mph /  6.4km/h 7.0mph /  11.3km/h 53% 0.00in /  0mm 12.0 W/m2
19:36 75.4 °F /  24.1 °C 57.0 °F /  13.9 °C 29.68in /  1005hPa SSE 10.1mph /  16.3km/h 10.1mph /  16.3km/h 53% 0.00in /  0mm 5.0 W/m2
19:43 75.0 °F /  23.9 °C 57.2 °F /  14 °C 29.67in /  1004.6hPa SSE 6.9mph /  11.1km/h 9.0mph /  14.5km/h 54% 0.00in /  0mm 0.0 W/m2
19:49 74.7 °F /  23.7 °C 56.5 °F /  13.6 °C 29.68in /  1005hPa South 6.9mph /  11.1km/h 8.0mph /  12.9km/h 53% 0.00in /  0mm 0.0 W/m2
19:55 74.5 °F /  23.6 °C 56.7 °F /  13.7 °C 29.68in /  1005hPa South 4.0mph /  6.4km/h 7.0mph /  11.3km/h 54% 0.00in /  0mm 0.0 W/m2
20:01 74.1 °F /  23.4 °C 56.5 °F /  13.6 °C 29.69in /  1005.3hPa ESE 4.0mph /  6.4km/h 9.0mph /  14.5km/h 54% 0.00in /  0mm 0.0 W/m2
20:07 73.9 °F /  23.3 °C 56.3 °F /  13.5 °C 29.69in /  1005.3hPa SE 6.9mph /  11.1km/h 12.0mph /  19.3km/h 54% 0.00in /  0mm 0.0 W/m2
20:13 73.8 °F /  23.2 °C 56.7 °F /  13.7 °C 29.69in /  1005.3hPa South 2.9mph /  4.7km/h 5.0mph /  8km/h 55% 0.00in /  0mm 0.0 W/m2
20:19 73.6 °F /  23.1 °C 56.8 °F /  13.8 °C 29.70in /  1005.6hPa Calm   7.0mph /  11.3km/h 56% 0.00in /  0mm 0.0 W/m2
20:25 73.6 °F /  23.1 °C 57.4 °F /  14.1 °C 29.70in /  1005.6hPa SSE 0.9mph /  1.4km/h 4.0mph /  6.4km/h 57% 0.00in /  0mm 0.0 W/m2
20:32 73.4 °F /  23 °C 57.7 °F /  14.3 °C 29.70in /  1005.6hPa SSE 8.1mph /  13km/h 10.0mph /  16.1km/h 58% 0.00in /  0mm 0.0 W/m2
20:38 73.2 °F /  22.9 °C 57.6 °F /  14.2 °C 29.70in /  1005.6hPa SE 4.9mph /  7.9km/h 5.0mph /  8km/h 58% 0.00in /  0mm 0.0 W/m2
20:44 73.2 °F /  22.9 °C 57.0 °F /  13.9 °C 29.70in /  1005.6hPa SSW 4.9mph /  7.9km/h 8.0mph /  12.9km/h 57% 0.00in /  0mm 0.0 W/m2
20:50 73.0 °F /  22.8 °C 56.8 °F /  13.8 °C 29.70in /  1005.6hPa SE 2.9mph /  4.7km/h 7.0mph /  11.3km/h 57% 0.00in /  0mm 0.0 W/m2
20:56 73.0 °F /  22.8 °C 56.8 °F /  13.8 °C 29.71in /  1006hPa SE 2.9mph /  4.7km/h 8.0mph /  12.9km/h 57% 0.00in /  0mm 0.0 W/m2
21:02 73.0 °F /  22.8 °C 56.8 °F /  13.8 °C 29.71in /  1006hPa SSE 2.0mph /  3.2km/h 6.0mph /  9.7km/h 57% 0.00in /  0mm 0.0 W/m2
21:08 73.0 °F /  22.8 °C 57.4 °F /  14.1 °C 29.70in /  1005.6hPa SE 4.0mph /  6.4km/h 7.0mph /  11.3km/h 58% 0.00in /  0mm 0.0 W/m2
21:14 73.0 °F /  22.8 °C 57.4 °F /  14.1 °C 29.70in /  1005.6hPa SSE 4.0mph /  6.4km/h 6.0mph /  9.7km/h 58% 0.00in /  0mm 0.0 W/m2
21:21 73.0 °F /  22.8 °C 57.4 °F /  14.1 °C 29.70in /  1005.6hPa SSE 4.0mph /  6.4km/h 7.0mph /  11.3km/h 58% 0.00in /  0mm 0.0 W/m2
21:27 72.9 °F /  22.7 °C 57.2 °F /  14 °C 29.71in /  1006hPa ESE 10.1mph /  16.3km/h 12.0mph /  19.3km/h 58% 0.00in /  0mm 0.0 W/m2
21:33 72.9 °F /  22.7 °C 57.7 °F /  14.3 °C 29.71in /  1006hPa SE 4.9mph /  7.9km/h 7.0mph /  11.3km/h 59% 0.00in /  0mm 0.0 W/m2
21:41 72.7 °F /  22.6 °C 57.6 °F /  14.2 °C 29.71in /  1006hPa ESE 6.0mph /  9.7km/h 6.0mph /  9.7km/h 59% 0.00in /  0mm 0.0 W/m2
21:47 72.7 °F /  22.6 °C 57.6 °F /  14.2 °C 29.71in /  1006hPa SE 6.0mph /  9.7km/h 6.0mph /  9.7km/h 59% 0.00in /  0mm 0.0 W/m2
21:53 72.5 °F /  22.5 °C 57.4 °F /  14.1 °C 29.71in /  1006hPa SE 4.0mph /  6.4km/h 7.0mph /  11.3km/h 59% 0.00in /  0mm 0.0 W/m2
21:59 72.3 °F /  22.4 °C 56.7 °F /  13.7 °C 29.72in /  1006.3hPa SE 4.9mph /  7.9km/h 8.0mph /  12.9km/h 58% 0.00in /  0mm 0.0 W/m2
22:05 72.3 °F /  22.4 °C 56.7 °F /  13.7 °C 29.71in /  1006hPa East 2.0mph /  3.2km/h 7.0mph /  11.3km/h 58% 0.00in /  0mm 0.0 W/m2
22:12 72.3 °F /  22.4 °C 56.7 °F /  13.7 °C 29.71in /  1006hPa SSE 6.9mph /  11.1km/h 8.0mph /  12.9km/h 58% 0.00in /  0mm 0.0 W/m2
22:18 72.1 °F /  22.3 °C 56.5 °F /  13.6 °C 29.72in /  1006.3hPa SE 0.9mph /  1.4km/h 6.0mph /  9.7km/h 58% 0.00in /  0mm 0.0 W/m2
22:24 72.1 °F /  22.3 °C 56.5 °F /  13.6 °C 29.72in /  1006.3hPa SSE 2.9mph /  4.7km/h 5.0mph /  8km/h 58% 0.00in /  0mm 0.0 W/m2
22:30 72.1 °F /  22.3 °C 56.5 °F /  13.6 °C 29.72in /  1006.3hPa Calm     58% 0.00in /  0mm 0.0 W/m2
22:36 72.0 °F /  22.2 °C 56.3 °F /  13.5 °C 29.72in /  1006.3hPa ESE 0.9mph /  1.4km/h 2.0mph /  3.2km/h 58% 0.00in /  0mm 0.0 W/m2
22:42 71.8 °F /  22.1 °C 56.1 °F /  13.4 °C 29.73in /  1006.7hPa Calm   7.0mph /  11.3km/h 58% 0.00in /  0mm 0.0 W/m2
22:48 71.8 °F /  22.1 °C 56.1 °F /  13.4 °C 29.73in /  1006.7hPa SE 0.9mph /  1.4km/h 3.0mph /  4.8km/h 58% 0.00in /  0mm 0.0 W/m2
22:55 71.6 °F /  22 °C 56.5 °F /  13.6 °C 29.73in /  1006.7hPa Calm   1.0mph /  1.6km/h 59% 0.00in /  0mm 0.0 W/m2
23:01 71.4 °F /  21.9 °C 56.3 °F /  13.5 °C 29.73in /  1006.7hPa SSE 8.1mph /  13km/h 10.0mph /  16.1km/h 59% 0.00in /  0mm 0.0 W/m2
23:07 71.4 °F /  21.9 °C 56.3 °F /  13.5 °C 29.73in /  1006.7hPa East 4.9mph /  7.9km/h 6.0mph /  9.7km/h 59% 0.00in /  0mm 0.0 W/m2
23:13 71.4 °F /  21.9 °C 56.3 °F /  13.5 °C 29.73in /  1006.7hPa SE 0.9mph /  1.4km/h 2.0mph /  3.2km/h 59% 0.00in /  0mm 0.0 W/m2
23:19 71.2 °F /  21.8 °C 55.8 °F /  13.2 °C 29.73in /  1006.7hPa SE 2.9mph /  4.7km/h 6.0mph /  9.7km/h 58% 0.00in /  0mm 0.0 W/m2
23:25 71.2 °F /  21.8 °C 55.8 °F /  13.2 °C 29.73in /  1006.7hPa SSE 6.0mph /  9.7km/h 10.0mph /  16.1km/h 58% 0.00in /  0mm 0.0 W/m2
23:31 71.2 °F /  21.8 °C 55.2 °F /  12.9 °C 29.73in /  1006.7hPa South 6.0mph /  9.7km/h 7.0mph /  11.3km/h 57% 0.00in /  0mm 0.0 W/m2
23:37 71.4 °F /  21.9 °C 55.4 °F /  13 °C 29.73in /  1006.7hPa SE 2.0mph /  3.2km/h 3.0mph /  4.8km/h 57% 0.00in /  0mm 0.0 W/m2
23:43 71.2 °F /  21.8 °C 55.8 °F /  13.2 °C 29.74in /  1007hPa ESE 4.0mph /  6.4km/h 6.0mph /  9.7km/h 58% 0.00in /  0mm 0.0 W/m2
23:49 71.2 °F /  21.8 °C 55.8 °F /  13.2 °C 29.74in /  1007hPa East 2.0mph /  3.2km/h 3.0mph /  4.8km/h 58% 0.00in /  0mm 0.0 W/m2
23:55 71.1 °F /  21.7 °C 55.9 °F /  13.3 °C 29.73in /  1006.7hPa Calm     59% 0.00in /  0mm 0.0 W/m2
Olympia, Windhoek, Namibia
Compliments of Weather Underground - 3 mb